Mount Angel, Oregon
Current Conditions -  °F | °C
As of 11:53 PM on Sunday 23 Nov 2014 (Local Time) from KUAO Reporting Station
Scattered Clouds Scattered Clouds  
Wind Chill: 47°   Ceiling: Unl
Heat Index: 47°   Visibility: 10mi
Dew Point: 46°   Wind: 3mph
Humidity: 97%   Direction: 240°WSW
Pressure: 30.38"   Gusts: NA
Location:  45.07°N, 122.8°W
Report Text: KUAO 240753Z AUTO 24003KT 10SM SCT060 08/08 A3038 RMK AO2 SLP287 T00830078 401280078
Loading
Personal Weather Stations






























Interactive Weather Map New forecast layout! Learn more

10-Day Weather Forecast

Advertisements
Track Severe Weather on mobile